sensor_id;sensor_type;location;lat;lon;timestamp;temperature;humidity
5286;DHT22;2665;53.112;7.358;2023-01-04T00:00:10;8.30;99.90
5286;DHT22;2665;53.112;7.358;2023-01-04T00:02:36;8.30;99.90
5286;DHT22;2665;53.112;7.358;2023-01-04T00:05:02;8.30;99.90
5286;DHT22;2665;53.112;7.358;2023-01-04T00:07:29;8.30;99.90
5286;DHT22;2665;53.112;7.358;2023-01-04T00:09:55;8.30;99.90
5286;DHT22;2665;53.112;7.358;2023-01-04T00:12:21;8.40;99.90
5286;DHT22;2665;53.112;7.358;2023-01-04T00:14:47;8.40;99.90
5286;DHT22;2665;53.112;7.358;2023-01-04T00:17:12;8.40;99.90
5286;DHT22;2665;53.112;7.358;2023-01-04T00:19:38;8.40;99.90
5286;DHT22;2665;53.112;7.358;2023-01-04T00:22:03;8.40;91.50
5286;DHT22;2665;53.112;7.358;2023-01-04T00:24:29;8.40;84.00
5286;DHT22;2665;53.112;7.358;2023-01-04T00:26:54;8.50;52.80
5286;DHT22;2665;53.112;7.358;2023-01-04T00:29:20;8.40;66.60
5286;DHT22;2665;53.112;7.358;2023-01-04T00:31:46;8.50;37.60
5286;DHT22;2665;53.112;7.358;2023-01-04T00:34:14;8.50;50.60
5286;DHT22;2665;53.112;7.358;2023-01-04T00:36:40;8.50;51.60
5286;DHT22;2665;53.112;7.358;2023-01-04T00:39:05;8.50;51.40
5286;DHT22;2665;53.112;7.358;2023-01-04T00:44:01;8.50;50.90
5286;DHT22;2665;53.112;7.358;2023-01-04T00:46:29;8.50;23.70
5286;DHT22;2665;53.112;7.358;2023-01-04T00:48:54;8.50;13.60
5286;DHT22;2665;53.112;7.358;2023-01-04T00:51:20;8.50;9.30
5286;DHT22;2665;53.112;7.358;2023-01-04T00:53:46;8.50;22.20
5286;DHT22;2665;53.112;7.358;2023-01-04T00:56:11;8.60;11.80
5286;DHT22;2665;53.112;7.358;2023-01-04T00:58:37;8.60;23.10
5286;DHT22;2665;53.112;7.358;2023-01-04T01:01:06;8.60;1.50
5286;DHT22;2665;53.112;7.358;2023-01-04T01:03:33;8.60;1.00
5286;DHT22;2665;53.112;7.358;2023-01-04T01:06:03;8.70;1.00
5286;DHT22;2665;53.112;7.358;2023-01-04T01:08:29;8.60;1.70
5286;DHT22;2665;53.112;7.358;2023-01-04T01:10:55;8.70;12.40
5286;DHT22;2665;53.112;7.358;2023-01-04T01:13:27;8.70;47.90
5286;DHT22;2665;53.112;7.358;2023-01-04T01:15:52;8.60;52.50
5286;DHT22;2665;53.112;7.358;2023-01-04T01:18:18;8.60;99.90
5286;DHT22;2665;53.112;7.358;2023-01-04T01:20:44;8.50;99.90
5286;DHT22;2665;53.112;7.358;2023-01-04T01:23:14;8.50;99.90
5286;DHT22;2665;53.112;7.358;2023-01-04T01:25:40;8.40;1.00
5286;DHT22;2665;53.112;7.358;2023-01-04T01:28:07;8.30;1.00
5286;DHT22;2665;53.112;7.358;2023-01-04T01:30:33;8.20;14.60
5286;DHT22;2665;53.112;7.358;2023-01-04T01:32:58;8.20;99.90
5286;DHT22;2665;53.112;7.358;2023-01-04T01:35:24;8.10;1.00
5286;DHT22;2665;53.112;7.358;2023-01-04T01:37:50;8.00;1.00
5286;DHT22;2665;53.112;7.358;2023-01-04T01:40:15;8.00;99.90
5286;DHT22;2665;53.112;7.358;2023-01-04T01:42:41;8.10;99.90
5286;DHT22;2665;53.112;7.358;2023-01-04T01:45:23;8.10;99.90
5286;DHT22;2665;53.112;7.358;2023-01-04T01:47:50;8.10;99.90
5286;DHT22;2665;53.112;7.358;2023-01-04T01:50:27;8.10;99.90
5286;DHT22;2665;53.112;7.358;2023-01-04T01:52:54;8.10;98.10
5286;DHT22;2665;53.112;7.358;2023-01-04T01:55:22;8.10;1.00
5286;DHT22;2665;53.112;7.358;2023-01-04T01:57:49;8.10;1.00
5286;DHT22;2665;53.112;7.358;2023-01-04T02:00:15;8.20;1.00
5286;DHT22;2665;53.112;7.358;2023-01-04T02:03:15;8.20;1.00
5286;DHT22;2665;53.112;7.358;2023-01-04T02:05:43;8.30;1.00
5286;DHT22;2665;53.112;7.358;2023-01-04T02:08:10;8.40;99.90
5286;DHT22;2665;53.112;7.358;2023-01-04T02:10:37;8.30;99.90
5286;DHT22;2665;53.112;7.358;2023-01-04T02:13:10;8.30;1.00
5286;DHT22;2665;53.112;7.358;2023-01-04T02:15:53;8.20;1.00
5286;DHT22;2665;53.112;7.358;2023-01-04T02:18:27;8.00;99.90
5286;DHT22;2665;53.112;7.358;2023-01-04T02:21:19;7.90;1.00
5286;DHT22;2665;53.112;7.358;2023-01-04T02:30:22;7.80;1.00
5286;DHT22;2665;53.112;7.358;2023-01-04T02:35:39;7.70;99.90
5286;DHT22;2665;53.112;7.358;2023-01-04T02:43:46;7.60;99.90
5286;DHT22;2665;53.112;7.358;2023-01-04T02:46:34;7.60;99.90
5286;DHT22;2665;53.112;7.358;2023-01-04T02:49:04;7.60;99.90
5286;DHT22;2665;53.112;7.358;2023-01-04T02:51:48;7.60;99.90
5286;DHT22;2665;53.112;7.358;2023-01-04T02:54:32;7.60;99.90
5286;DHT22;2665;53.112;7.358;2023-01-04T02:57:21;7.60;99.90
5286;DHT22;2665;53.112;7.358;2023-01-04T03:06:08;7.60;99.90
5286;DHT22;2665;53.112;7.358;2023-01-04T03:11:09;7.60;1.00
5286;DHT22;2665;53.112;7.358;2023-01-04T03:14:08;7.60;1.00
5286;DHT22;2665;53.112;7.358;2023-01-04T03:16:37;7.60;1.00
5286;DHT22;2665;53.112;7.358;2023-01-04T03:19:04;7.60;1.00
5286;DHT22;2665;53.112;7.358;2023-01-04T03:21:34;7.60;1.00
5286;DHT22;2665;53.112;7.358;2023-01-04T03:24:02;7.60;1.00
5286;DHT22;2665;53.112;7.358;2023-01-04T03:26:54;7.60;1.00
5286;DHT22;2665;53.112;7.358;2023-01-04T03:29:44;7.70;1.00
5286;DHT22;2665;53.112;7.358;2023-01-04T03:38:32;7.70;1.00
5286;DHT22;2665;53.112;7.358;2023-01-04T03:41:31;7.70;1.00
5286;DHT22;2665;53.112;7.358;2023-01-04T03:44:59;7.80;1.00
5286;DHT22;2665;53.112;7.358;2023-01-04T03:48:21;7.80;1.00
5286;DHT22;2665;53.112;7.358;2023-01-04T03:51:14;7.80;1.00
5286;DHT22;2665;53.112;7.358;2023-01-04T03:56:19;7.80;1.00
5286;DHT22;2665;53.112;7.358;2023-01-04T03:58:47;7.90;1.00
5286;DHT22;2665;53.112;7.358;2023-01-04T04:01:14;7.90;1.00
5286;DHT22;2665;53.112;7.358;2023-01-04T04:03:39;7.90;1.00
5286;DHT22;2665;53.112;7.358;2023-01-04T04:06:24;8.00;1.00
5286;DHT22;2665;53.112;7.358;2023-01-04T04:09:08;8.00;1.00
5286;DHT22;2665;53.112;7.358;2023-01-04T04:11:33;8.00;1.00
5286;DHT22;2665;53.112;7.358;2023-01-04T04:13:59;8.10;1.00
5286;DHT22;2665;53.112;7.358;2023-01-04T04:16:26;8.10;1.00
5286;DHT22;2665;53.112;7.358;2023-01-04T04:18:52;8.20;1.00
5286;DHT22;2665;53.112;7.358;2023-01-04T04:21:17;8.20;1.00
5286;DHT22;2665;53.112;7.358;2023-01-04T04:23:43;8.20;1.00
5286;DHT22;2665;53.112;7.358;2023-01-04T04:26:09;8.30;1.00
5286;DHT22;2665;53.112;7.358;2023-01-04T04:28:35;8.30;1.00
5286;DHT22;2665;53.112;7.358;2023-01-04T04:31:00;8.40;1.00
5286;DHT22;2665;53.112;7.358;2023-01-04T04:33:26;8.40;1.00
5286;DHT22;2665;53.112;7.358;2023-01-04T04:35:53;8.50;1.00
5286;DHT22;2665;53.112;7.358;2023-01-04T04:38:19;8.50;1.00
5286;DHT22;2665;53.112;7.358;2023-01-04T04:40:46;8.50;1.00
5286;DHT22;2665;53.112;7.358;2023-01-04T04:43:32;8.60;1.00
5286;DHT22;2665;53.112;7.358;2023-01-04T04:45:57;8.60;1.00
5286;DHT22;2665;53.112;7.358;2023-01-04T04:48:23;8.60;1.00
5286;DHT22;2665;53.112;7.358;2023-01-04T04:50:49;8.70;1.00
5286;DHT22;2665;53.112;7.358;2023-01-04T04:53:14;8.70;1.00
5286;DHT22;2665;53.112;7.358;2023-01-04T04:55:40;8.70;1.00
5286;DHT22;2665;53.112;7.358;2023-01-04T04:58:05;8.80;1.00
5286;DHT22;2665;53.112;7.358;2023-01-04T05:00:31;8.80;1.00
5286;DHT22;2665;53.112;7.358;2023-01-04T05:03:00;8.90;1.00
5286;DHT22;2665;53.112;7.358;2023-01-04T05:05:27;8.90;1.00
5286;DHT22;2665;53.112;7.358;2023-01-04T05:07:53;9.00;1.00
5286;DHT22;2665;53.112;7.358;2023-01-04T05:10:19;9.10;1.00
5286;DHT22;2665;53.112;7.358;2023-01-04T05:12:44;9.20;1.00
5286;DHT22;2665;53.112;7.358;2023-01-04T05:15:35;9.20;1.00
5286;DHT22;2665;53.112;7.358;2023-01-04T05:18:01;9.30;1.00
5286;DHT22;2665;53.112;7.358;2023-01-04T05:20:27;9.40;1.00
5286;DHT22;2665;53.112;7.358;2023-01-04T05:22:53;9.40;1.00
5286;DHT22;2665;53.112;7.358;2023-01-04T05:25:18;9.40;1.00
5286;DHT22;2665;53.112;7.358;2023-01-04T05:27:44;9.50;1.00
5286;DHT22;2665;53.112;7.358;2023-01-04T05:30:11;9.60;1.00
5286;DHT22;2665;53.112;7.358;2023-01-04T05:32:57;9.60;1.00
5286;DHT22;2665;53.112;7.358;2023-01-04T05:35:22;9.60;1.00
5286;DHT22;2665;53.112;7.358;2023-01-04T05:37:48;9.60;1.00
5286;DHT22;2665;53.112;7.358;2023-01-04T05:40:14;9.70;1.00
5286;DHT22;2665;53.112;7.358;2023-01-04T05:42:39;9.70;1.00
5286;DHT22;2665;53.112;7.358;2023-01-04T05:45:05;9.80;1.00
5286;DHT22;2665;53.112;7.358;2023-01-04T05:47:32;9.80;1.00
5286;DHT22;2665;53.112;7.358;2023-01-04T05:49:57;9.80;1.00
5286;DHT22;2665;53.112;7.358;2023-01-04T05:52:23;9.80;1.00
5286;DHT22;2665;53.112;7.358;2023-01-04T05:54:49;9.80;1.00
5286;DHT22;2665;53.112;7.358;2023-01-04T05:57:15;9.80;1.00
5286;DHT22;2665;53.112;7.358;2023-01-04T05:59:41;9.70;1.00
5286;DHT22;2665;53.112;7.358;2023-01-04T06:02:13;9.70;1.00
5286;DHT22;2665;53.112;7.358;2023-01-04T06:04:39;9.60;1.00
5286;DHT22;2665;53.112;7.358;2023-01-04T06:07:05;9.70;1.00
5286;DHT22;2665;53.112;7.358;2023-01-04T06:09:30;9.70;1.00
5286;DHT22;2665;53.112;7.358;2023-01-04T06:11:56;9.70;1.00
5286;DHT22;2665;53.112;7.358;2023-01-04T06:14:22;9.80;1.00
5286;DHT22;2665;53.112;7.358;2023-01-04T06:16:47;9.80;1.00
5286;DHT22;2665;53.112;7.358;2023-01-04T06:19:13;9.90;1.00
5286;DHT22;2665;53.112;7.358;2023-01-04T06:21:38;9.80;1.00
5286;DHT22;2665;53.112;7.358;2023-01-04T06:24:04;9.90;1.00
5286;DHT22;2665;53.112;7.358;2023-01-04T06:26:30;9.80;1.00
5286;DHT22;2665;53.112;7.358;2023-01-04T06:28:55;9.90;1.00
5286;DHT22;2665;53.112;7.358;2023-01-04T06:31:21;9.90;1.00
5286;DHT22;2665;53.112;7.358;2023-01-04T06:33:46;9.90;1.00
5286;DHT22;2665;53.112;7.358;2023-01-04T06:36:12;9.90;1.00
5286;DHT22;2665;53.112;7.358;2023-01-04T06:38:37;9.90;1.00
5286;DHT22;2665;53.112;7.358;2023-01-04T06:41:03;9.90;1.00
5286;DHT22;2665;53.112;7.358;2023-01-04T06:43:29;9.90;1.00
5286;DHT22;2665;53.112;7.358;2023-01-04T06:45:55;9.90;1.00
5286;DHT22;2665;53.112;7.358;2023-01-04T06:48:20;10.00;1.00
5286;DHT22;2665;53.112;7.358;2023-01-04T06:50:46;10.00;1.00
5286;DHT22;2665;53.112;7.358;2023-01-04T06:53:11;10.00;1.00
5286;DHT22;2665;53.112;7.358;2023-01-04T06:55:37;10.00;1.00
5286;DHT22;2665;53.112;7.358;2023-01-04T06:58:02;10.00;1.00
5286;DHT22;2665;53.112;7.358;2023-01-04T07:00:28;10.00;1.00
5286;DHT22;2665;53.112;7.358;2023-01-04T07:02:54;10.00;1.00
5286;DHT22;2665;53.112;7.358;2023-01-04T07:05:19;10.00;1.00
5286;DHT22;2665;53.112;7.358;2023-01-04T07:07:45;10.10;1.00
5286;DHT22;2665;53.112;7.358;2023-01-04T07:10:10;10.00;1.00
5286;DHT22;2665;53.112;7.358;2023-01-04T07:12:37;10.10;1.00
5286;DHT22;2665;53.112;7.358;2023-01-04T07:15:04;10.10;1.00
5286;DHT22;2665;53.112;7.358;2023-01-04T07:17:30;10.00;1.00
5286;DHT22;2665;53.112;7.358;2023-01-04T07:19:55;10.10;1.00
5286;DHT22;2665;53.112;7.358;2023-01-04T07:22:21;10.10;1.00
5286;DHT22;2665;53.112;7.358;2023-01-04T07:24:47;10.10;1.00
5286;DHT22;2665;53.112;7.358;2023-01-04T07:27:13;10.10;1.00
5286;DHT22;2665;53.112;7.358;2023-01-04T07:29:38;10.00;1.00
5286;DHT22;2665;53.112;7.358;2023-01-04T07:32:08;10.00;1.00
5286;DHT22;2665;53.112;7.358;2023-01-04T07:34:34;10.10;1.00
5286;DHT22;2665;53.112;7.358;2023-01-04T07:36:59;10.10;1.00
5286;DHT22;2665;53.112;7.358;2023-01-04T07:39:25;10.10;1.00
5286;DHT22;2665;53.112;7.358;2023-01-04T07:41:50;10.10;1.00
5286;DHT22;2665;53.112;7.358;2023-01-04T07:44:16;10.10;1.00
5286;DHT22;2665;53.112;7.358;2023-01-04T07:46:43;10.10;1.00
5286;DHT22;2665;53.112;7.358;2023-01-04T07:49:14;10.10;1.00
5286;DHT22;2665;53.112;7.358;2023-01-04T07:51:41;10.10;1.00
5286;DHT22;2665;53.112;7.358;2023-01-04T07:54:06;10.10;1.00
5286;DHT22;2665;53.112;7.358;2023-01-04T07:56:32;10.10;1.00
5286;DHT22;2665;53.112;7.358;2023-01-04T07:58:57;10.10;1.00
5286;DHT22;2665;53.112;7.358;2023-01-04T08:01:25;10.10;1.00
5286;DHT22;2665;53.112;7.358;2023-01-04T08:03:51;10.10;1.00
5286;DHT22;2665;53.112;7.358;2023-01-04T08:06:18;10.20;1.00
5286;DHT22;2665;53.112;7.358;2023-01-04T08:08:44;10.20;1.00
5286;DHT22;2665;53.112;7.358;2023-01-04T08:11:14;10.20;1.00
5286;DHT22;2665;53.112;7.358;2023-01-04T08:13:41;10.20;1.00
5286;DHT22;2665;53.112;7.358;2023-01-04T08:16:07;10.20;1.00
5286;DHT22;2665;53.112;7.358;2023-01-04T08:18:33;10.20;1.00
5286;DHT22;2665;53.112;7.358;2023-01-04T08:21:06;10.20;1.00
5286;DHT22;2665;53.112;7.358;2023-01-04T08:23:33;10.20;1.00
5286;DHT22;2665;53.112;7.358;2023-01-04T08:26:07;10.30;1.00
5286;DHT22;2665;53.112;7.358;2023-01-04T08:28:34;10.30;1.00
5286;DHT22;2665;53.112;7.358;2023-01-04T08:31:06;10.30;1.00
5286;DHT22;2665;53.112;7.358;2023-01-04T08:33:32;10.30;1.00
5286;DHT22;2665;53.112;7.358;2023-01-04T08:36:08;10.30;1.00
5286;DHT22;2665;53.112;7.358;2023-01-04T08:38:34;10.30;1.00
5286;DHT22;2665;53.112;7.358;2023-01-04T08:40:59;10.30;1.00
5286;DHT22;2665;53.112;7.358;2023-01-04T08:43:25;10.30;1.00
5286;DHT22;2665;53.112;7.358;2023-01-04T08:45:51;10.30;1.00
5286;DHT22;2665;53.112;7.358;2023-01-04T08:48:16;10.30;1.00
5286;DHT22;2665;53.112;7.358;2023-01-04T08:50:42;10.30;1.00
5286;DHT22;2665;53.112;7.358;2023-01-04T08:53:07;10.40;1.00
5286;DHT22;2665;53.112;7.358;2023-01-04T08:55:33;10.40;1.00
5286;DHT22;2665;53.112;7.358;2023-01-04T08:57:59;10.40;1.00
5286;DHT22;2665;53.112;7.358;2023-01-04T09:00:25;10.40;1.00
5286;DHT22;2665;53.112;7.358;2023-01-04T09:02:51;10.40;1.00
5286;DHT22;2665;53.112;7.358;2023-01-04T09:05:17;10.40;1.00
5286;DHT22;2665;53.112;7.358;2023-01-04T09:07:43;10.40;1.00
5286;DHT22;2665;53.112;7.358;2023-01-04T09:10:09;10.50;1.00
5286;DHT22;2665;53.112;7.358;2023-01-04T09:12:35;10.50;1.00
5286;DHT22;2665;53.112;7.358;2023-01-04T09:15:01;10.50;1.00
5286;DHT22;2665;53.112;7.358;2023-01-04T09:17:27;10.50;1.00
5286;DHT22;2665;53.112;7.358;2023-01-04T09:19:53;10.50;1.00
5286;DHT22;2665;53.112;7.358;2023-01-04T09:22:18;10.50;1.00
5286;DHT22;2665;53.112;7.358;2023-01-04T09:24:44;10.50;1.00
5286;DHT22;2665;53.112;7.358;2023-01-04T09:27:09;10.60;1.00
5286;DHT22;2665;53.112;7.358;2023-01-04T09:29:35;10.60;1.00
5286;DHT22;2665;53.112;7.358;2023-01-04T09:32:01;10.60;1.00
5286;DHT22;2665;53.112;7.358;2023-01-04T09:34:26;10.60;1.00
5286;DHT22;2665;53.112;7.358;2023-01-04T09:36:52;10.70;1.00
5286;DHT22;2665;53.112;7.358;2023-01-04T09:39:17;10.70;1.00
5286;DHT22;2665;53.112;7.358;2023-01-04T09:42:03;10.70;1.00
5286;DHT22;2665;53.112;7.358;2023-01-04T09:44:35;10.70;1.00
5286;DHT22;2665;53.112;7.358;2023-01-04T09:47:10;10.70;1.00
5286;DHT22;2665;53.112;7.358;2023-01-04T09:52:23;10.70;1.00
5286;DHT22;2665;53.112;7.358;2023-01-04T09:54:56;10.70;1.00
5286;DHT22;2665;53.112;7.358;2023-01-04T09:57:34;10.70;1.00
5286;DHT22;2665;53.112;7.358;2023-01-04T10:00:17;10.80;1.00
5286;DHT22;2665;53.112;7.358;2023-01-04T10:03:02;10.70;1.00
5286;DHT22;2665;53.112;7.358;2023-01-04T10:05:31;10.80;1.00
5286;DHT22;2665;53.112;7.358;2023-01-04T10:07:57;10.80;1.00
5286;DHT22;2665;53.112;7.358;2023-01-04T10:10:41;10.80;1.00
5286;DHT22;2665;53.112;7.358;2023-01-04T10:13:39;10.80;1.00
5286;DHT22;2665;53.112;7.358;2023-01-04T10:21:56;10.80;1.00
5286;DHT22;2665;53.112;7.358;2023-01-04T10:30:09;10.90;1.00
5286;DHT22;2665;53.112;7.358;2023-01-04T10:32:45;10.90;1.00
5286;DHT22;2665;53.112;7.358;2023-01-04T10:35:22;10.90;1.00
5286;DHT22;2665;53.112;7.358;2023-01-04T10:37:53;10.90;1.00
5286;DHT22;2665;53.112;7.358;2023-01-04T10:40:22;10.90;1.00
5286;DHT22;2665;53.112;7.358;2023-01-04T10:43:22;10.90;1.00
5286;DHT22;2665;53.112;7.358;2023-01-04T10:51:07;11.00;1.00
5286;DHT22;2665;53.112;7.358;2023-01-04T10:56:07;11.10;1.00
5286;DHT22;2665;53.112;7.358;2023-01-04T10:58:41;11.20;1.00
5286;DHT22;2665;53.112;7.358;2023-01-04T11:04:43;11.30;1.00
5286;DHT22;2665;53.112;7.358;2023-01-04T11:07:47;11.40;1.00
5286;DHT22;2665;53.112;7.358;2023-01-04T11:10:26;11.40;1.00
5286;DHT22;2665;53.112;7.358;2023-01-04T11:12:53;11.40;1.00
5286;DHT22;2665;53.112;7.358;2023-01-04T11:15:19;11.50;1.00
5286;DHT22;2665;53.112;7.358;2023-01-04T11:17:45;11.50;1.00
5286;DHT22;2665;53.112;7.358;2023-01-04T11:20:11;11.60;1.00
5286;DHT22;2665;53.112;7.358;2023-01-04T11:22:38;11.60;1.00
5286;DHT22;2665;53.112;7.358;2023-01-04T11:25:10;11.60;1.00
5286;DHT22;2665;53.112;7.358;2023-01-04T11:30:23;11.70;1.00
5286;DHT22;2665;53.112;7.358;2023-01-04T11:33:16;11.70;1.00
5286;DHT22;2665;53.112;7.358;2023-01-04T11:35:45;11.80;1.00
5286;DHT22;2665;53.112;7.358;2023-01-04T11:38:21;11.80;1.00
5286;DHT22;2665;53.112;7.358;2023-01-04T11:41:05;11.80;1.00
5286;DHT22;2665;53.112;7.358;2023-01-04T11:43:33;11.90;1.00
5286;DHT22;2665;53.112;7.358;2023-01-04T11:48:44;12.00;1.00
5286;DHT22;2665;53.112;7.358;2023-01-04T11:56:26;12.10;99.90
5286;DHT22;2665;53.112;7.358;2023-01-04T11:59:15;12.10;99.90
5286;DHT22;2665;53.112;7.358;2023-01-04T12:01:43;12.10;99.90
5286;DHT22;2665;53.112;7.358;2023-01-04T12:04:26;12.10;1.00
5286;DHT22;2665;53.112;7.358;2023-01-04T12:07:01;12.20;1.00
5286;DHT22;2665;53.112;7.358;2023-01-04T12:09:29;12.20;99.90
5286;DHT22;2665;53.112;7.358;2023-01-04T12:11:57;12.20;1.00
5286;DHT22;2665;53.112;7.358;2023-01-04T12:14:33;12.20;1.00
5286;DHT22;2665;53.112;7.358;2023-01-04T12:17:20;12.20;99.90
5286;DHT22;2665;53.112;7.358;2023-01-04T12:19:48;12.20;1.00
5286;DHT22;2665;53.112;7.358;2023-01-04T12:22:37;12.30;99.90
5286;DHT22;2665;53.112;7.358;2023-01-04T12:25:06;12.20;1.00
5286;DHT22;2665;53.112;7.358;2023-01-04T12:27:33;12.30;99.90
5286;DHT22;2665;53.112;7.358;2023-01-04T12:30:05;12.30;99.90
5286;DHT22;2665;53.112;7.358;2023-01-04T12:34:57;12.30;1.00
5286;DHT22;2665;53.112;7.358;2023-01-04T12:45:42;12.40;99.90
5286;DHT22;2665;53.112;7.358;2023-01-04T12:54:03;12.40;1.00
5286;DHT22;2665;53.112;7.358;2023-01-04T12:59:35;12.50;34.80
5286;DHT22;2665;53.112;7.358;2023-01-04T13:04:42;12.60;99.90
5286;DHT22;2665;53.112;7.358;2023-01-04T13:07:20;12.60;99.90
5286;DHT22;2665;53.112;7.358;2023-01-04T13:09:57;12.60;99.90
5286;DHT22;2665;53.112;7.358;2023-01-04T13:12:50;12.60;17.50
5286;DHT22;2665;53.112;7.358;2023-01-04T13:17:53;12.60;3.60
5286;DHT22;2665;53.112;7.358;2023-01-04T13:20:21;12.60;90.40
5286;DHT22;2665;53.112;7.358;2023-01-04T13:22:52;12.60;97.10
5286;DHT22;2665;53.112;7.358;2023-01-04T13:25:20;12.60;1.00
5286;DHT22;2665;53.112;7.358;2023-01-04T13:28:05;12.60;16.40
5286;DHT22;2665;53.112;7.358;2023-01-04T13:30:39;12.60;1.00
5286;DHT22;2665;53.112;7.358;2023-01-04T13:33:23;12.60;1.00
5286;DHT22;2665;53.112;7.358;2023-01-04T13:36:06;12.60;1.00
5286;DHT22;2665;53.112;7.358;2023-01-04T13:38:34;12.70;1.00
5286;DHT22;2665;53.112;7.358;2023-01-04T13:41:00;12.60;1.00
5286;DHT22;2665;53.112;7.358;2023-01-04T13:43:39;12.60;1.00
5286;DHT22;2665;53.112;7.358;2023-01-04T13:46:13;12.60;1.00
5286;DHT22;2665;53.112;7.358;2023-01-04T13:48:41;12.60;1.00
5286;DHT22;2665;53.112;7.358;2023-01-04T13:51:20;12.50;1.00
5286;DHT22;2665;53.112;7.358;2023-01-04T13:53:55;12.50;1.00
5286;DHT22;2665;53.112;7.358;2023-01-04T13:56:26;12.50;1.00
5286;DHT22;2665;53.112;7.358;2023-01-04T13:58:53;12.50;33.40
5286;DHT22;2665;53.112;7.358;2023-01-04T14:01:19;12.40;99.90
5286;DHT22;2665;53.112;7.358;2023-01-04T14:16:50;12.40;1.00
5286;DHT22;2665;53.112;7.358;2023-01-04T14:19:43;12.40;1.00
5286;DHT22;2665;53.112;7.358;2023-01-04T14:25:00;12.40;1.00
5286;DHT22;2665;53.112;7.358;2023-01-04T14:27:30;12.40;1.00
5286;DHT22;2665;53.112;7.358;2023-01-04T14:29:56;12.30;1.00
5286;DHT22;2665;53.112;7.358;2023-01-04T14:32:23;12.20;69.90
5286;DHT22;2665;53.112;7.358;2023-01-04T14:34:49;12.20;99.90
5286;DHT22;2665;53.112;7.358;2023-01-04T14:37:14;12.10;99.90
5286;DHT22;2665;53.112;7.358;2023-01-04T14:39:40;12.00;1.00
5286;DHT22;2665;53.112;7.358;2023-01-04T14:42:23;12.00;35.80
5286;DHT22;2665;53.112;7.358;2023-01-04T14:44:49;12.00;99.90
5286;DHT22;2665;53.112;7.358;2023-01-04T14:47:15;12.00;99.90
5286;DHT22;2665;53.112;7.358;2023-01-04T14:49:41;12.00;99.90
5286;DHT22;2665;53.112;7.358;2023-01-04T14:52:24;12.00;29.40
5286;DHT22;2665;53.112;7.358;2023-01-04T14:54:50;12.00;1.00
5286;DHT22;2665;53.112;7.358;2023-01-04T14:57:16;12.00;1.00
5286;DHT22;2665;53.112;7.358;2023-01-04T14:59:41;12.00;1.00
5286;DHT22;2665;53.112;7.358;2023-01-04T15:02:09;12.00;1.00
5286;DHT22;2665;53.112;7.358;2023-01-04T15:04:35;12.00;1.00
5286;DHT22;2665;53.112;7.358;2023-01-04T15:07:00;12.00;1.00
5286;DHT22;2665;53.112;7.358;2023-01-04T15:09:27;12.10;1.00
5286;DHT22;2665;53.112;7.358;2023-01-04T15:11:52;12.10;99.90
5286;DHT22;2665;53.112;7.358;2023-01-04T15:14:18;12.00;99.90
5286;DHT22;2665;53.112;7.358;2023-01-04T15:16:44;12.10;99.90
5286;DHT22;2665;53.112;7.358;2023-01-04T15:19:10;12.00;99.90
5286;DHT22;2665;53.112;7.358;2023-01-04T15:21:35;12.10;99.90
5286;DHT22;2665;53.112;7.358;2023-01-04T15:24:01;12.10;99.90
5286;DHT22;2665;53.112;7.358;2023-01-04T15:26:27;12.00;99.90
5286;DHT22;2665;53.112;7.358;2023-01-04T15:28:53;12.00;99.90
5286;DHT22;2665;53.112;7.358;2023-01-04T15:31:19;12.00;99.90
5286;DHT22;2665;53.112;7.358;2023-01-04T15:33:45;12.00;99.90
5286;DHT22;2665;53.112;7.358;2023-01-04T15:36:13;11.90;99.90
5286;DHT22;2665;53.112;7.358;2023-01-04T15:38:40;11.90;99.90
5286;DHT22;2665;53.112;7.358;2023-01-04T15:41:09;11.90;99.90
5286;DHT22;2665;53.112;7.358;2023-01-04T15:43:36;11.90;99.90
5286;DHT22;2665;53.112;7.358;2023-01-04T15:46:06;11.80;99.90
5286;DHT22;2665;53.112;7.358;2023-01-04T15:48:36;11.80;99.90
5286;DHT22;2665;53.112;7.358;2023-01-04T15:51:05;11.80;1.00
5286;DHT22;2665;53.112;7.358;2023-01-04T15:53:32;11.80;1.00
5286;DHT22;2665;53.112;7.358;2023-01-04T15:56:16;11.80;1.00
5286;DHT22;2665;53.112;7.358;2023-01-04T15:58:42;11.80;1.00
5286;DHT22;2665;53.112;7.358;2023-01-04T16:01:13;11.80;1.00
5286;DHT22;2665;53.112;7.358;2023-01-04T16:03:39;11.80;1.00
5286;DHT22;2665;53.112;7.358;2023-01-04T16:06:10;11.80;99.90
5286;DHT22;2665;53.112;7.358;2023-01-04T16:08:36;11.80;99.90
5286;DHT22;2665;53.112;7.358;2023-01-04T16:11:16;11.70;99.90
5286;DHT22;2665;53.112;7.358;2023-01-04T16:13:47;11.30;99.90
5286;DHT22;2665;53.112;7.358;2023-01-04T16:16:13;11.10;99.90
5286;DHT22;2665;53.112;7.358;2023-01-04T16:18:47;11.00;99.90
5286;DHT22;2665;53.112;7.358;2023-01-04T16:21:14;11.00;1.00
5286;DHT22;2665;53.112;7.358;2023-01-04T16:23:40;11.10;4.90
5286;DHT22;2665;53.112;7.358;2023-01-04T16:26:11;11.10;1.00
5286;DHT22;2665;53.112;7.358;2023-01-04T16:28:37;11.20;99.90
5286;DHT22;2665;53.112;7.358;2023-01-04T16:31:04;11.20;1.00
5286;DHT22;2665;53.112;7.358;2023-01-04T16:33:30;11.30;99.90
5286;DHT22;2665;53.112;7.358;2023-01-04T16:36:06;11.30;1.00
5286;DHT22;2665;53.112;7.358;2023-01-04T16:38:40;11.30;1.00
5286;DHT22;2665;53.112;7.358;2023-01-04T16:41:07;11.30;99.90
5286;DHT22;2665;53.112;7.358;2023-01-04T16:43:44;11.30;99.90
5286;DHT22;2665;53.112;7.358;2023-01-04T16:48:50;11.40;99.90
5286;DHT22;2665;53.112;7.358;2023-01-04T16:51:16;11.40;99.90
5286;DHT22;2665;53.112;7.358;2023-01-04T16:53:42;11.40;44.10
5286;DHT22;2665;53.112;7.358;2023-01-04T16:56:12;11.40;1.00
5286;DHT22;2665;53.112;7.358;2023-01-04T16:58:39;11.40;1.00
5286;DHT22;2665;53.112;7.358;2023-01-04T17:01:10;11.50;99.90
5286;DHT22;2665;53.112;7.358;2023-01-04T17:03:36;11.50;64.20
5286;DHT22;2665;53.112;7.358;2023-01-04T17:06:07;11.40;1.00
5286;DHT22;2665;53.112;7.358;2023-01-04T17:08:33;11.20;99.90
5286;DHT22;2665;53.112;7.358;2023-01-04T17:11:04;11.10;99.90
5286;DHT22;2665;53.112;7.358;2023-01-04T17:13:29;11.20;99.90
5286;DHT22;2665;53.112;7.358;2023-01-04T17:15:58;11.20;99.90
5286;DHT22;2665;53.112;7.358;2023-01-04T17:18:24;11.30;1.00
5286;DHT22;2665;53.112;7.358;2023-01-04T17:20:54;11.30;1.00
5286;DHT22;2665;53.112;7.358;2023-01-04T17:23:21;11.40;99.90
5286;DHT22;2665;53.112;7.358;2023-01-04T17:25:46;11.30;99.90
5286;DHT22;2665;53.112;7.358;2023-01-04T17:28:12;11.20;1.00
5286;DHT22;2665;53.112;7.358;2023-01-04T17:30:38;11.00;1.00
5286;DHT22;2665;53.112;7.358;2023-01-04T17:33:04;11.10;99.90
5286;DHT22;2665;53.112;7.358;2023-01-04T17:35:30;11.10;99.90
5286;DHT22;2665;53.112;7.358;2023-01-04T17:37:55;11.10;99.90
5286;DHT22;2665;53.112;7.358;2023-01-04T17:40:21;11.10;99.90
5286;DHT22;2665;53.112;7.358;2023-01-04T17:42:47;11.20;1.00
5286;DHT22;2665;53.112;7.358;2023-01-04T17:45:12;11.20;1.00
5286;DHT22;2665;53.112;7.358;2023-01-04T17:47:38;11.20;1.00
5286;DHT22;2665;53.112;7.358;2023-01-04T17:50:04;11.20;1.00
5286;DHT22;2665;53.112;7.358;2023-01-04T17:52:29;11.10;99.90
5286;DHT22;2665;53.112;7.358;2023-01-04T17:54:55;10.90;99.90
5286;DHT22;2665;53.112;7.358;2023-01-04T17:57:20;10.80;99.90
5286;DHT22;2665;53.112;7.358;2023-01-04T17:59:46;10.80;1.00
5286;DHT22;2665;53.112;7.358;2023-01-04T18:02:12;10.70;99.90
5286;DHT22;2665;53.112;7.358;2023-01-04T18:04:37;10.70;46.20
5286;DHT22;2665;53.112;7.358;2023-01-04T18:07:03;10.60;1.00
5286;DHT22;2665;53.112;7.358;2023-01-04T18:09:28;10.50;1.00
5286;DHT22;2665;53.112;7.358;2023-01-04T18:11:54;10.50;99.90
5286;DHT22;2665;53.112;7.358;2023-01-04T18:14:19;10.50;1.00
5286;DHT22;2665;53.112;7.358;2023-01-04T18:16:46;10.60;1.00
5286;DHT22;2665;53.112;7.358;2023-01-04T18:19:22;10.80;1.00
5286;DHT22;2665;53.112;7.358;2023-01-04T18:21:48;10.90;99.90
5286;DHT22;2665;53.112;7.358;2023-01-04T18:24:13;10.90;1.00
5286;DHT22;2665;53.112;7.358;2023-01-04T18:26:39;11.00;1.00
5286;DHT22;2665;53.112;7.358;2023-01-04T18:29:06;11.00;1.00